Time;durP1;ratioP1;P1;durP2;ratioP2;P2;SDS_P1;SDS_P2;PMS_P1;PMS_P2;Temp;Humidity;BMP_temperature;BMP_pressure;BME280_temperature;BME280_humidity;BME280_pressure;Samples;Min_cycle;Max_cycle;Signal;HPM_P1;HPM_P2
2022/10/15 00:01:40;;;;;;;16.05;8.68;;;;;;;14.03;97.73;99058.16;5040930;28;20052;-83
2022/10/15 00:04:05;;;;;;;11.90;6.85;;;;;;;14.03;97.96;99054.59;5044983;28;20496;-85
2022/10/15 00:06:30;;;;;;;10.57;6.78;;;;;;;13.94;98.41;99057.25;5046152;28;20124;-85
2022/10/15 00:08:56;;;;;;;14.75;6.30;;;;;;;13.92;99.00;99078.66;5040153;28;20167;-84
2022/10/15 00:11:24;;;;;;;13.88;8.80;;;;;;;14.00;98.09;99064.25;5042655;28;20034;-83
2022/10/15 00:13:52;;;;;;;12.75;8.57;;;;;;;14.01;97.99;99057.66;5043482;28;20041;-81
2022/10/15 00:16:21;;;;;;;14.43;8.15;;;;;;;13.93;98.97;99050.16;5041747;28;20025;-81
2022/10/15 00:18:48;;;;;;;12.95;7.30;;;;;;;13.85;99.98;99043.47;5043974;28;20025;-89
2022/10/15 00:21:16;;;;;;;13.23;7.78;;;;;;;13.85;100.00;99047.00;5043085;28;20083;-89
2022/10/15 00:23:42;;;;;;;13.43;7.95;;;;;;;13.79;100.00;99039.19;5042169;28;20026;-81
2022/10/15 00:26:11;;;;;;;12.30;7.50;;;;;;;13.70;100.00;99041.81;5040046;28;20655;-81
2022/10/15 00:28:36;;;;;;;13.38;8.95;;;;;;;13.63;100.00;99037.56;5040995;28;20410;-81
2022/10/15 00:31:05;;;;;;;13.93;7.88;;;;;;;13.63;100.00;99043.03;5040232;28;20028;-81
2022/10/15 00:33:30;;;;;;;15.40;8.90;;;;;;;13.68;100.00;99042.13;5043112;28;20064;-89
2022/10/15 00:36:03;;;;;;;14.10;8.77;;;;;;;13.66;100.00;99036.16;5043123;28;20122;-89
2022/10/15 00:38:29;;;;;;;14.25;7.50;;;;;;;13.54;100.00;99034.72;5044027;28;20048;-89
2022/10/15 00:40:58;;;;;;;14.52;7.75;;;;;;;13.54;100.00;99032.00;5042879;28;20025;-89
2022/10/15 00:43:47;;;;;;;14.27;9.38;;;;;;;13.57;100.00;99024.25;5045094;28;20034;-89
2022/10/15 00:46:34;;;;;;;13.73;9.32;;;;;;;13.59;100.00;99035.72;5042757;28;20067;-90
2022/10/15 00:49:10;;;;;;;14.50;8.30;;;;;;;13.63;100.00;99031.25;5044813;28;20035;-90
2022/10/15 00:51:43;;;;;;;20.25;10.18;;;;;;;13.69;100.00;99030.03;5044344;28;20448;-89
2022/10/15 00:54:10;;;;;;;14.85;8.85;;;;;;;13.81;100.00;99032.28;5041136;28;20472;-82
2022/10/15 00:56:38;;;;;;;18.52;9.55;;;;;;;13.93;99.17;99033.72;5039425;28;20341;-82
2022/10/15 00:59:05;;;;;;;17.45;8.82;;;;;;;13.84;98.69;99039.91;5040591;28;20036;-90
2022/10/15 01:01:32;;;;;;;14.88;9.00;;;;;;;13.69;99.50;99045.69;5041019;28;20102;-88
2022/10/15 01:04:00;;;;;;;18.98;9.60;;;;;;;13.65;100.00;99039.97;5044235;28;20037;-88
2022/10/15 01:06:25;;;;;;;14.85;8.90;;;;;;;13.69;100.00;99049.22;5040022;28;20619;-83
2022/10/15 01:08:51;;;;;;;17.23;9.70;;;;;;;13.68;100.00;99044.06;5039081;28;20123;-84
2022/10/15 01:11:47;;;;;;;15.25;9.10;;;;;;;13.79;98.85;99039.19;5040138;28;20025;-90
2022/10/15 01:14:23;;;;;;;16.58;10.48;;;;;;;13.64;99.39;99041.94;5041863;28;20033;-89
2022/10/15 01:17:04;;;;;;;16.70;8.65;;;;;;;13.61;100.00;99034.31;5043457;28;20033;-88
2022/10/15 01:19:57;;;;;;;14.18;9.32;;;;;;;13.59;100.00;99032.97;5047061;28;20089;-88
2022/10/15 01:22:38;;;;;;;14.23;8.45;;;;;;;13.58;99.94;99029.44;5044542;28;20036;-88
2022/10/15 01:25:28;;;;;;;16.00;8.82;;;;;;;13.69;99.65;99018.31;5040483;28;20468;-88
2022/10/15 01:28:19;;;;;;;14.23;7.97;;;;;;;13.67;98.87;99023.28;5042444;28;20125;-88
2022/10/15 01:30:50;;;;;;;14.23;8.52;;;;;;;13.60;98.38;99027.22;5066223;28;20500;-84
2022/10/15 01:33:25;;;;;;;14.18;8.82;;;;;;;13.58;98.86;99028.63;5047148;28;20032;-83
2022/10/15 01:35:57;;;;;;;16.45;8.60;;;;;;;13.52;99.37;99027.88;5043781;28;20037;-81
2022/10/15 01:38:48;;;;;;;13.95;7.43;;;;;;;13.59;99.08;99041.19;5038439;28;20031;-81
2022/10/15 01:41:23;;;;;;;15.82;8.10;;;;;;;13.71;98.23;99024.28;5040537;28;20030;-81
2022/10/15 01:44:10;;;;;;;16.42;8.63;;;;;;;13.68;98.46;99039.41;5038843;28;20025;-81
2022/10/15 01:46:44;;;;;;;14.93;8.50;;;;;;;13.70;97.89;99050.03;5030200;28;20034;-82
2022/10/15 01:49:14;;;;;;;13.82;8.98;;;;;;;13.69;98.34;99057.44;5034640;28;20037;-81
2022/10/15 01:51:42;;;;;;;15.25;8.52;;;;;;;13.52;99.45;99052.53;5050790;28;20037;-85
2022/10/15 01:54:12;;;;;;;12.18;8.10;;;;;;;13.52;100.00;99052.53;5050488;28;20040;-86
2022/10/15 01:56:38;;;;;;;14.60;8.48;;;;;;;13.62;99.89;99051.56;5050644;28;20400;-85
2022/10/15 01:59:04;;;;;;;15.27;9.02;;;;;;;13.58;99.41;99048.63;5051151;28;20041;-85
2022/10/15 02:01:29;;;;;;;14.70;8.70;;;;;;;13.58;99.43;99043.13;5050726;28;20468;-82
2022/10/15 02:03:54;;;;;;;14.43;8.87;;;;;;;13.53;99.53;99045.94;5050070;28;20037;-82
2022/10/15 02:06:27;;;;;;;13.37;7.90;;;;;;;13.55;99.78;99043.72;5050250;28;20287;-82
2022/10/15 02:09:01;;;;;;;16.60;8.27;;;;;;;13.49;99.76;99039.44;5050380;28;20265;-82
2022/10/15 02:11:29;;;;;;;15.15;8.77;;;;;;;13.45;100.00;99044.69;5049855;28;20100;-82
2022/10/15 02:14:08;;;;;;;17.08;9.65;;;;;;;13.51;100.00;99038.03;5049992;28;20036;-83
2022/10/15 02:16:42;;;;;;;14.68;9.38;;;;;;;13.51;99.94;99035.28;5050524;28;20070;-83
2022/10/15 02:19:17;;;;;;;15.35;8.32;;;;;;;13.52;100.00;99041.56;5055194;28;20339;-83
2022/10/15 02:21:58;;;;;;;13.63;8.15;;;;;;;13.52;100.00;99027.88;5071155;28;20043;-83
2022/10/15 02:24:27;;;;;;;13.70;8.55;;;;;;;13.50;100.00;99027.38;5029244;28;20060;-83
2022/10/15 02:26:56;;;;;;;15.98;9.43;;;;;;;13.48;100.00;99022.22;5030697;28;20026;-83
2022/10/15 02:29:25;;;;;;;20.25;12.00;;;;;;;13.48;100.00;99018.66;5030657;28;20034;-83
2022/10/15 02:31:54;;;;;;;14.70;9.02;;;;;;;13.40;100.00;99022.91;5050075;28;20048;-84
2022/10/15 02:34:24;;;;;;;18.38;10.30;;;;;;;13.39;100.00;99027.56;5049907;28;20048;-85
2022/10/15 02:36:50;;;;;;;15.85;9.52;;;;;;;13.39;100.00;99019.34;5050429;28;20399;-86
2022/10/15 02:39:22;;;;;;;15.10;9.75;;;;;;;13.40;100.00;99017.44;5050840;28;20036;-85
2022/10/15 02:41:48;;;;;;;15.85;8.85;;;;;;;13.47;99.94;99025.22;5050963;28;20043;-85
2022/10/15 02:44:14;;;;;;;17.45;10.52;;;;;;;13.48;99.75;99018.66;5050213;28;20392;-85
2022/10/15 02:46:39;;;;;;;17.40;10.30;;;;;;;13.47;99.91;99025.22;5050488;28;20086;-85
2022/10/15 02:49:04;;;;;;;18.77;11.82;;;;;;;13.41;100.00;99025.34;5055969;28;20029;-85
2022/10/15 02:51:31;;;;;;;18.30;11.07;;;;;;;13.31;100.00;99031.00;5070096;28;20040;-85
2022/10/15 02:53:57;;;;;;;19.98;11.18;;;;;;;13.25;100.00;99032.19;5053059;28;20274;-82
2022/10/15 02:56:22;;;;;;;16.02;9.63;;;;;;;13.30;100.00;99034.84;5050077;28;20315;-83
2022/10/15 02:58:47;;;;;;;17.90;11.30;;;;;;;13.24;100.00;99041.53;5049626;28;20056;-82
2022/10/15 03:01:13;;;;;;;21.43;10.77;;;;;;;13.19;100.00;99051.44;5049592;28;20332;-82
2022/10/15 03:03:38;;;;;;;20.13;11.00;;;;;;;13.16;100.00;99046.56;5049437;28;20292;-83
2022/10/15 03:06:04;;;;;;;20.67;11.43;;;;;;;13.13;100.00;99038.97;5050164;28;20729;-83
2022/10/15 03:08:30;;;;;;;15.50;9.10;;;;;;;13.18;100.00;99035.34;5050443;28;20475;-83
2022/10/15 03:10:55;;;;;;;22.17;11.75;;;;;;;13.14;100.00;99029.63;5048986;28;20021;-82
2022/10/15 03:13:21;;;;;;;19.87;12.47;;;;;;;13.23;100.00;99031.69;5048666;28;20556;-82
2022/10/15 03:15:46;;;;;;;23.75;13.43;;;;;;;13.26;100.00;99028.34;5049754;28;20304;-83
2022/10/15 03:18:11;;;;;;;22.17;13.98;;;;;;;13.24;100.00;99031.38;5049672;28;20021;-87
2022/10/15 03:20:36;;;;;;;18.77;11.15;;;;;;;13.23;100.00;99021.56;5050514;28;20036;-88
2022/10/15 03:23:02;;;;;;;19.33;12.25;;;;;;;13.25;100.00;99029.47;5050223;28;20476;-82
2022/10/15 03:25:27;;;;;;;22.92;13.13;;;;;;;13.36;100.00;99024.63;5049361;28;20037;-82
2022/10/15 03:27:52;;;;;;;21.23;12.70;;;;;;;13.43;99.62;99025.03;5049321;28;20052;-85
2022/10/15 03:30:19;;;;;;;23.27;12.98;;;;;;;13.46;99.04;99023.63;5053048;28;20274;-84
2022/10/15 03:32:44;;;;;;;20.52;12.43;;;;;;;13.39;99.58;99018.53;5053534;28;20027;-86
2022/10/15 03:35:09;;;;;;;25.58;14.05;;;;;;;13.48;98.86;99014.00;5053584;28;20132;-86
2022/10/15 03:37:35;;;;;;;22.90;12.70;;;;;;;13.57;98.60;99018.78;5054207;28;20025;-82
2022/10/15 03:40:00;;;;;;;20.15;11.60;;;;;;;13.44;98.28;99012.97;5051519;28;20258;-82
2022/10/15 03:42:25;;;;;;;21.98;14.93;;;;;;;13.51;98.31;99007.09;5052219;28;20025;-82
2022/10/15 03:44:51;;;;;;;25.67;14.23;;;;;;;13.53;97.74;98993.91;5053131;28;20538;-82
2022/10/15 03:47:16;;;;;;;24.00;14.23;;;;;;;13.46;97.54;98998.97;5052604;28;20087;-82
2022/10/15 03:49:41;;;;;;;27.15;14.93;;;;;;;13.42;97.14;98994.09;5062483;28;20854;-82
2022/10/15 03:52:07;;;;;;;22.70;14.13;;;;;;;13.38;97.46;98995.03;5070643;28;20032;-81
2022/10/15 03:54:32;;;;;;;23.17;14.55;;;;;;;13.22;97.81;98992.53;5052992;28;20041;-81
2022/10/15 03:56:57;;;;;;;25.38;13.57;;;;;;;13.30;98.12;99002.81;5052921;28;20484;-82
2022/10/15 03:59:23;;;;;;;22.20;13.63;;;;;;;13.27;97.11;98992.47;5054063;28;20025;-90
2022/10/15 04:01:48;;;;;;;23.90;14.18;;;;;;;13.32;96.57;98994.31;5053004;28;20262;-90
2022/10/15 04:04:13;;;;;;;25.88;16.52;;;;;;;13.29;96.75;98989.41;5053117;28;20029;-87
2022/10/15 04:06:39;;;;;;;25.83;15.10;;;;;;;13.10;98.42;98995.78;5053695;28;20033;-87
2022/10/15 04:09:04;;;;;;;23.98;15.48;;;;;;;13.06;99.01;98997.47;5053839;28;20396;-87
2022/10/15 04:11:29;;;;;;;29.30;15.90;;;;;;;13.03;99.17;98989.88;5053350;28;20025;-87
2022/10/15 04:13:55;;;;;;;26.52;16.25;;;;;;;12.93;100.00;98994.44;5053873;28;20035;-87
2022/10/15 04:16:20;;;;;;;27.48;16.30;;;;;;;12.94;99.74;98998.78;5053939;28;20039;-87
2022/10/15 04:18:45;;;;;;;21.60;15.37;;;;;;;12.99;99.62;99003.34;5053842;28;20037;-91
2022/10/15 04:21:11;;;;;;;23.25;14.68;;;;;;;12.91;99.75;99007.59;5052987;28;20262;-91
2022/10/15 04:23:36;;;;;;;27.70;15.75;;;;;;;12.88;100.00;99007.34;5053064;28;20040;-91
2022/10/15 04:26:01;;;;;;;30.65;17.50;;;;;;;12.96;99.81;99004.75;5053408;28;20028;-92
2022/10/15 04:28:27;;;;;;;30.90;17.45;;;;;;;12.90;100.00;99011.44;5053307;28;20036;-91
2022/10/15 04:30:57;;;;;;;24.70;16.10;;;;;;;12.86;100.00;99010.41;5053478;28;20068;-91
2022/10/15 04:33:22;;;;;;;24.13;13.75;;;;;;;12.93;99.82;99007.28;5052581;28;20403;-87
2022/10/15 04:35:57;;;;;;;33.42;17.88;;;;;;;12.98;100.00;99007.19;5053123;28;20090;-87
2022/10/15 04:38:22;;;;;;;25.40;15.65;;;;;;;13.15;98.92;99006.63;5053459;28;20037;-86
2022/10/15 04:40:48;;;;;;;22.77;14.80;;;;;;;13.16;98.64;99019.19;5052115;28;20044;-86
2022/10/15 04:43:13;;;;;;;29.90;16.77;;;;;;;13.11;99.15;99013.81;5052482;28;20266;-82
2022/10/15 04:45:38;;;;;;;28.60;16.65;;;;;;;13.08;98.75;99015.22;5051870;28;20277;-82
2022/10/15 04:48:04;;;;;;;30.77;17.03;;;;;;;13.01;100.00;99020.28;5051327;28;20033;-82
2022/10/15 04:50:29;;;;;;;31.67;17.20;;;;;;;13.06;99.99;99020.19;5052122;28;20274;-83
2022/10/15 04:52:54;;;;;;;30.40;16.02;;;;;;;13.01;99.81;99022.19;5051521;28;20392;-82
2022/10/15 04:55:19;;;;;;;31.03;16.83;;;;;;;13.00;99.92;99020.56;5051568;28;20044;-81
2022/10/15 04:57:45;;;;;;;27.65;15.48;;;;;;;12.88;100.00;99019.13;5051669;28;20392;-82
2022/10/15 05:00:11;;;;;;;25.98;15.70;;;;;;;12.89;100.00;99015.28;5051825;28;20039;-81
2022/10/15 05:02:36;;;;;;;31.23;18.10;;;;;;;12.99;100.00;99016.22;5051214;28;20460;-82
2022/10/15 05:05:01;;;;;;;31.63;17.87;;;;;;;12.87;100.00;99017.50;5051398;28;20025;-82
2022/10/15 05:07:26;;;;;;;29.10;17.08;;;;;;;12.96;100.00;99021.19;5052175;28;20270;-84
2022/10/15 05:09:52;;;;;;;35.17;17.13;;;;;;;13.00;100.00;99015.91;5051864;28;20124;-84
2022/10/15 05:12:17;;;;;;;27.75;17.48;;;;;;;12.98;100.00;99020.06;5051555;28;20297;-83
2022/10/15 05:14:42;;;;;;;32.78;18.23;;;;;;;12.96;100.00;99021.19;5052068;28;20392;-83
2022/10/15 05:17:08;;;;;;;28.87;17.10;;;;;;;12.95;100.00;99014.09;5051362;28;20498;-83
2022/10/15 05:19:33;;;;;;;28.05;16.38;;;;;;;13.04;100.00;99007.91;5050721;28;20250;-84
2022/10/15 05:21:58;;;;;;;30.17;16.00;;;;;;;12.95;100.00;99003.16;5051375;28;20036;-83
2022/10/15 05:24:23;;;;;;;28.93;15.73;;;;;;;12.87;100.00;99006.56;5051979;28;20265;-82
2022/10/15 05:26:49;;;;;;;29.92;16.60;;;;;;;12.87;100.00;99008.47;5052316;28;20262;-82
2022/10/15 05:29:14;;;;;;;31.10;16.50;;;;;;;12.94;100.00;98998.78;5051949;28;20087;-91
2022/10/15 05:31:39;;;;;;;34.08;19.10;;;;;;;13.11;100.00;99000.13;5051890;28;20301;-92
2022/10/15 05:34:06;;;;;;;32.17;18.45;;;;;;;13.06;100.00;98989.28;5050735;28;20490;-81
2022/10/15 05:36:32;;;;;;;28.48;17.05;;;;;;;13.19;100.00;98988.50;5050787;28;20036;-81
2022/10/15 05:39:00;;;;;;;30.63;17.13;;;;;;;13.17;99.32;98988.00;5051022;28;20546;-81
2022/10/15 05:41:26;;;;;;;29.00;17.17;;;;;;;13.11;99.25;98989.19;5050429;28;20028;-81
2022/10/15 05:43:54;;;;;;;33.65;18.10;;;;;;;13.14;99.66;98987.78;5049858;28;20037;-81
2022/10/15 05:46:19;;;;;;;31.60;17.33;;;;;;;13.14;98.74;98994.06;5050484;28;20067;-81
2022/10/15 05:48:49;;;;;;;25.45;15.02;;;;;;;13.01;99.54;99003.06;5051017;28;20056;-91
2022/10/15 05:51:14;;;;;;;34.85;19.45;;;;;;;13.04;100.00;99005.16;5051684;28;20029;-92
2022/10/15 05:53:41;;;;;;;27.23;15.20;;;;;;;13.02;100.00;99002.75;5051239;28;20111;-86
2022/10/15 05:56:07;;;;;;;26.50;16.35;;;;;;;12.93;100.00;99008.09;5051656;28;20025;-87
2022/10/15 05:58:33;;;;;;;28.77;17.42;;;;;;;12.90;100.00;99011.44;5050237;28;20059;-85
2022/10/15 06:01:00;;;;;;;30.08;16.98;;;;;;;12.98;100.00;99009.94;5051462;28;20282;-84
2022/10/15 06:03:26;;;;;;;30.55;17.98;;;;;;;12.99;100.00;99024.44;5050429;28;20025;-87
2022/10/15 06:05:52;;;;;;;30.70;17.17;;;;;;;12.96;100.00;99020.34;5051557;28;20025;-87
2022/10/15 06:08:19;;;;;;;28.77;16.80;;;;;;;12.97;100.00;99022.00;5050830;28;20037;-81
2022/10/15 06:10:44;;;;;;;37.17;21.17;;;;;;;12.98;100.00;99031.03;5049553;28;20081;-81
2022/10/15 06:13:10;;;;;;;38.63;19.25;;;;;;;13.04;100.00;99032.53;5049730;28;20032;-84
2022/10/15 06:15:40;;;;;;;32.83;19.00;;;;;;;13.18;100.00;99033.41;5050510;28;20128;-83
2022/10/15 06:18:06;;;;;;;28.67;17.02;;;;;;;13.13;100.00;99035.41;5050407;28;20028;-81
2022/10/15 06:20:31;;;;;;;29.38;16.30;;;;;;;13.12;100.00;99034.59;5050176;28;20039;-81
2022/10/15 06:22:58;;;;;;;25.42;15.88;;;;;;;13.12;100.00;99029.13;5049347;28;20037;-83
2022/10/15 06:25:24;;;;;;;38.05;20.75;;;;;;;13.12;100.00;99031.84;5049922;28;20036;-82
2022/10/15 06:27:49;;;;;;;32.55;18.88;;;;;;;13.23;100.00;99039.91;5050100;28;20025;-83
2022/10/15 06:30:14;;;;;;;32.50;18.07;;;;;;;13.22;100.00;99033.59;5050028;28;20060;-82
2022/10/15 06:32:49;;;;;;;32.22;18.27;;;;;;;13.21;100.00;99039.38;5049861;28;20254;-84
2022/10/15 06:35:14;;;;;;;34.25;17.85;;;;;;;13.24;100.00;99038.78;5050250;28;20029;-84
2022/10/15 06:37:39;;;;;;;28.33;17.33;;;;;;;13.21;100.00;99040.19;5050034;28;20090;-88
2022/10/15 06:40:05;;;;;;;35.97;19.87;;;;;;;13.28;100.00;99037.09;5050942;28;20446;-87
2022/10/15 06:42:31;;;;;;;31.80;19.08;;;;;;;13.34;100.00;99046.00;5050479;28;20250;-85
2022/10/15 06:44:56;;;;;;;38.28;18.48;;;;;;;13.29;100.00;99044.16;5048499;28;20025;-85
2022/10/15 06:47:21;;;;;;;27.93;15.30;;;;;;;13.28;100.00;99048.03;5050624;28;20037;-84
2022/10/15 06:49:46;;;;;;;31.27;17.97;;;;;;;13.23;100.00;99042.63;5049623;28;20266;-83
2022/10/15 06:52:12;;;;;;;28.80;16.55;;;;;;;13.24;100.00;99042.31;5048917;28;20305;-83
2022/10/15 06:54:37;;;;;;;31.93;17.67;;;;;;;13.25;100.00;99043.16;5049709;28;20143;-83
2022/10/15 06:57:02;;;;;;;25.83;15.33;;;;;;;13.29;100.00;99050.47;5049726;28;20289;-83
2022/10/15 06:59:27;;;;;;;27.02;15.10;;;;;;;13.22;100.00;99049.22;5049385;28;20721;-82
2022/10/15 07:01:53;;;;;;;26.42;15.10;;;;;;;13.20;100.00;99049.50;5049250;28;20037;-81
2022/10/15 07:04:18;;;;;;;25.10;14.45;;;;;;;13.26;100.00;99050.25;5048869;28;20063;-83
2022/10/15 07:06:43;;;;;;;23.37;14.53;;;;;;;13.34;100.00;99044.09;5050211;28;20033;-83
2022/10/15 07:09:08;;;;;;;26.20;15.15;;;;;;;13.48;100.00;99049.59;5050529;28;20258;-84
2022/10/15 07:11:34;;;;;;;22.57;13.40;;;;;;;13.39;100.00;99054.94;5050198;28;20033;-84
2022/10/15 07:13:59;;;;;;;26.20;15.00;;;;;;;13.35;100.00;99059.38;5049731;28;20262;-83
2022/10/15 07:16:25;;;;;;;25.20;15.15;;;;;;;13.37;100.00;99050.88;5049836;28;20269;-84
2022/10/15 07:18:53;;;;;;;23.42;13.13;;;;;;;13.28;100.00;99048.81;5044764;28;20040;-86
2022/10/15 07:21:18;;;;;;;22.70;12.27;;;;;;;13.37;100.00;99046.22;5038974;28;20030;-87
2022/10/15 07:23:43;;;;;;;25.33;14.32;;;;;;;13.43;100.00;99045.00;5043459;28;20037;-87
2022/10/15 07:26:09;;;;;;;27.50;15.88;;;;;;;13.43;100.00;99039.53;5039430;28;20049;-87
2022/10/15 07:28:34;;;;;;;24.52;14.30;;;;;;;13.38;100.00;99053.28;5038847;28;20460;-83
2022/10/15 07:31:02;;;;;;;24.63;13.88;;;;;;;13.43;100.00;99047.75;5040246;28;20142;-82
2022/10/15 07:33:28;;;;;;;33.90;16.55;;;;;;;13.39;100.00;99052.19;5046315;28;20044;-82
2022/10/15 07:35:53;;;;;;;28.40;15.68;;;;;;;13.43;100.00;99050.50;5049126;28;20025;-81
2022/10/15 07:38:18;;;;;;;27.15;14.50;;;;;;;13.47;100.00;99049.88;5049755;28;20082;-87
2022/10/15 07:40:44;;;;;;;24.40;14.13;;;;;;;13.43;100.00;99050.50;5049742;28;20101;-86
2022/10/15 07:43:09;;;;;;;28.88;15.95;;;;;;;13.42;100.00;99056.28;5048842;28;20375;-83
2022/10/15 07:45:34;;;;;;;31.67;17.95;;;;;;;13.46;100.00;99062.78;5049630;28;20036;-84
2022/10/15 07:48:00;;;;;;;28.83;16.63;;;;;;;13.47;100.00;99058.09;5049777;28;20568;-83
2022/10/15 07:50:25;;;;;;;30.08;15.45;;;;;;;13.59;100.00;99058.44;5049126;28;20025;-83
2022/10/15 07:52:50;;;;;;;33.15;17.08;;;;;;;13.53;100.00;99054.97;5048300;28;20040;-86
2022/10/15 07:55:16;;;;;;;30.63;17.77;;;;;;;13.60;100.00;99060.09;5052485;28;20040;-86
2022/10/15 07:57:41;;;;;;;34.65;17.63;;;;;;;13.67;100.00;99061.63;5048464;28;20507;-86
2022/10/15 08:00:09;;;;;;;30.95;16.45;;;;;;;13.67;100.00;99056.13;5048490;28;20123;-86
2022/10/15 08:02:34;;;;;;;30.05;15.02;;;;;;;13.61;100.00;99064.44;5048754;28;20069;-81
2022/10/15 08:04:59;;;;;;;25.88;16.15;;;;;;;13.63;100.00;99053.97;5048387;28;20464;-82
2022/10/15 08:07:25;;;;;;;26.80;15.75;;;;;;;13.71;99.54;99054.41;5048878;28;20029;-85
2022/10/15 08:09:50;;;;;;;26.43;12.33;;;;;;;13.67;99.62;99061.63;5049622;28;20174;-85
2022/10/15 08:12:16;;;;;;;21.80;13.23;;;;;;;13.62;99.48;99055.13;5049093;28;20282;-85
2022/10/15 08:14:41;;;;;;;22.85;12.05;;;;;;;13.69;99.22;99056.66;5049357;28;20040;-85
2022/10/15 08:17:07;;;;;;;24.25;14.43;;;;;;;13.75;98.90;99058.16;5050300;28;20059;-85
2022/10/15 08:19:32;;;;;;;23.97;10.83;;;;;;;13.92;98.15;99059.47;5051724;28;20045;-85
2022/10/15 08:21:57;;;;;;;17.83;10.68;;;;;;;13.93;97.50;99052.88;5051502;28;20249;-85
2022/10/15 08:24:23;;;;;;;22.50;12.98;;;;;;;13.96;97.65;99044.06;5051893;28;20043;-83
2022/10/15 08:26:48;;;;;;;18.52;10.45;;;;;;;13.82;97.63;99039.41;5052074;28;20150;-83
2022/10/15 08:29:14;;;;;;;19.30;10.60;;;;;;;13.82;97.74;99049.53;5053365;28;20040;-82
2022/10/15 08:31:40;;;;;;;20.33;11.20;;;;;;;13.70;97.29;99047.31;5053074;28;20052;-83
2022/10/15 08:34:05;;;;;;;22.08;11.50;;;;;;;13.74;98.29;99026.41;5052583;28;20037;-88
2022/10/15 08:36:31;;;;;;;18.45;12.60;;;;;;;13.77;98.11;99036.75;5053537;28;20068;-88
2022/10/15 08:38:56;;;;;;;35.83;9.40;;;;;;;13.82;98.89;99033.91;5053198;28;20400;-88
2022/10/15 08:41:36;;;;;;;23.77;10.38;;;;;;;14.07;99.00;99040.00;5052910;28;20386;-88
2022/10/15 08:44:02;;;;;;;19.17;10.40;;;;;;;14.27;97.10;99043.41;5053228;28;20480;-88
2022/10/15 08:46:35;;;;;;;17.77;10.73;;;;;;;14.42;96.64;99027.75;5053421;28;20075;-88
2022/10/15 08:49:01;;;;;;;17.27;8.45;;;;;;;14.36;96.13;99019.63;5053063;28;20032;-88
2022/10/15 08:51:41;;;;;;;13.23;7.32;;;;;;;14.39;94.88;99023.69;5052742;28;20029;-88
2022/10/15 08:54:14;;;;;;;14.35;7.72;;;;;;;14.55;94.94;99029.63;5052550;28;20549;-85
2022/10/15 08:56:44;;;;;;;13.97;7.80;;;;;;;14.70;95.19;99027.66;5052531;28;20029;-85
2022/10/15 08:59:24;;;;;;;14.13;7.57;;;;;;;15.03;93.30;99024.69;5052225;28;20025;-85
2022/10/15 09:01:57;;;;;;;11.43;6.15;;;;;;;15.13;93.23;99020.88;5052445;28;20074;-85
2022/10/15 09:05:10;;;;;;;10.98;6.25;;;;;;;14.88;91.24;99022.31;5031837;28;20045;-85
2022/10/15 09:08:04;;;;;;;9.20;4.68;;;;;;;14.97;91.91;99025.94;4970975;28;20101;-81
2022/10/15 09:10:34;;;;;;;;;;;;;;;15.02;92.10;99023.06;5031961;28;20485;-81
2022/10/15 09:13:25;;;;;;;9.23;4.55;;;;;;;15.56;89.30;99023.38;5041810;28;20015;-81
2022/10/15 09:15:56;;;;;;;12.52;3.13;;;;;;;15.71;87.15;99025.69;5051068;28;20028;-81
2022/10/15 09:18:24;;;;;;;8.52;3.50;;;;;;;15.50;89.59;99026.22;5051162;28;20033;-83
2022/10/15 09:20:50;;;;;;;7.30;3.88;;;;;;;15.63;90.01;99029.19;5051899;28;20436;-82
2022/10/15 09:23:19;;;;;;;6.35;3.08;;;;;;;15.36;88.40;99028.25;5051520;28;20037;-88
2022/10/15 09:25:53;;;;;;;6.15;2.90;;;;;;;15.00;89.61;99025.31;5052532;28;20456;-88
2022/10/15 09:28:23;;;;;;;8.35;3.05;;;;;;;15.01;89.54;99009.66;5052091;28;20029;-88
2022/10/15 09:30:54;;;;;;;5.05;2.15;;;;;;;14.79;89.17;99020.28;5052240;28;20399;-88
2022/10/15 09:33:41;;;;;;;2.75;1.42;;;;;;;14.94;90.05;99015.59;5050740;28;20041;-88
2022/10/15 09:36:17;;;;;;;5.00;1.90;;;;;;;15.18;89.28;99008.94;5051806;28;20029;-88
2022/10/15 09:38:48;;;;;;;3.33;2.17;;;;;;;15.33;88.15;98999.50;5052207;28;20063;-88
2022/10/15 09:41:28;;;;;;;2.47;1.27;;;;;;;15.20;88.35;98995.72;5052308;28;20396;-88
2022/10/15 09:43:56;;;;;;;3.45;1.90;;;;;;;15.23;89.45;98989.63;5051799;28;20542;-88
2022/10/15 09:46:21;;;;;;;4.60;1.52;;;;;;;15.43;88.02;98992.94;5052076;28;20037;-88
2022/10/15 09:49:07;;;;;;;3.33;0.98;;;;;;;15.38;87.85;98991.13;5054057;28;20466;-88
2022/10/15 09:51:44;;;;;;;2.85;1.50;;;;;;;15.47;87.15;98985.69;5071306;28;20033;-88
2022/10/15 09:54:21;;;;;;;1.70;0.90;;;;;;;15.44;86.94;98989.03;5052955;28;20078;-87
2022/10/15 09:56:52;;;;;;;7.13;0.75;;;;;;;15.48;86.57;98990.03;5051709;28;20032;-85
2022/10/15 09:59:20;;;;;;;1.77;0.50;;;;;;;15.51;86.83;98994.09;5051846;28;20550;-87
2022/10/15 10:02:15;;;;;;;1.95;0.70;;;;;;;15.72;86.78;98994.31;5051878;28;20472;-87
2022/10/15 10:04:40;;;;;;;2.28;0.80;;;;;;;15.73;86.40;98984.97;5037953;28;20045;-87
2022/10/15 10:07:06;;;;;;;1.97;1.00;;;;;;;15.60;86.94;98991.38;5051708;28;20454;-88
2022/10/15 10:09:35;;;;;;;1.50;0.63;;;;;;;15.60;86.86;98980.41;5051745;28;20265;-87
2022/10/15 10:12:04;;;;;;;2.38;0.77;;;;;;;15.59;87.38;98978.75;5051574;28;20029;-87
2022/10/15 10:14:52;;;;;;;1.50;0.50;;;;;;;15.47;89.03;98985.69;5049974;28;20036;-84
2022/10/15 10:17:20;;;;;;;1.33;0.60;;;;;;;15.48;90.34;98984.53;5051299;28;20314;-85
2022/10/15 10:20:14;;;;;;;1.25;0.50;;;;;;;15.49;92.09;98975.19;5060990;28;20017;-84
2022/10/15 10:23:02;;;;;;;2.17;0.40;;;;;;;15.70;91.21;98971.84;5063989;28;20025;-84
2022/10/15 10:25:29;;;;;;;1.73;0.80;;;;;;;16.06;90.77;98975.53;5049294;28;20055;-84
2022/10/15 10:28:12;;;;;;;1.15;0.32;;;;;;;16.17;88.67;98966.97;5050485;28;20032;-84
2022/10/15 10:30:41;;;;;;;0.67;0.40;;;;;;;16.28;87.56;98967.44;5050939;28;20060;-84
2022/10/15 10:33:11;;;;;;;1.80;0.30;;;;;;;16.32;87.73;98960.16;5049870;28;20055;-84
2022/10/15 10:35:49;;;;;;;1.35;0.63;;;;;;;16.54;86.82;98961.94;5050606;28;20033;-84
2022/10/15 10:38:28;;;;;;;0.68;0.40;;;;;;;16.60;86.10;98959.81;5050150;28;20145;-84
2022/10/15 10:40:57;;;;;;;1.23;0.50;;;;;;;16.50;85.83;98969.22;5051109;28;20078;-84
2022/10/15 10:43:28;;;;;;;0.80;0.28;;;;;;;16.35;87.03;98954.03;5050432;28;20408;-82
2022/10/15 10:45:59;;;;;;;0.80;0.30;;;;;;;16.26;86.82;98950.47;5049900;28;20422;-81
2022/10/15 10:48:28;;;;;;;1.80;0.68;;;;;;;16.15;88.02;98950.78;5049671;28;20025;-83
2022/10/15 10:51:17;;;;;;;3.33;0.40;;;;;;;16.17;90.70;98947.72;5050214;28;20052;-83
2022/10/15 10:53:57;;;;;;;1.30;0.75;;;;;;;16.04;91.19;98944.78;5040842;28;20145;-84
2022/10/15 10:56:27;;;;;;;1.42;0.50;;;;;;;16.04;90.13;98949.47;5050311;28;20037;-83
2022/10/15 10:59:00;;;;;;;2.25;0.38;;;;;;;15.97;91.71;98950.72;5050090;28;20056;-84
2022/10/15 11:01:27;;;;;;;197.30;23.13;;;;;;;16.01;90.96;98944.59;5050110;28;20085;-84
2022/10/15 11:03:52;;;;;;;0.73;0.40;;;;;;;15.87;92.20;98945.53;5049347;28;20047;-83
2022/10/15 11:06:32;;;;;;;2.40;1.13;;;;;;;15.93;93.50;98944.25;5049025;28;20032;-83
2022/10/15 11:09:09;;;;;;;1.27;0.47;;;;;;;15.88;93.75;98947.16;5050157;28;20052;-83
2022/10/15 11:11:57;;;;;;;2.08;0.63;;;;;;;15.90;93.88;98947.66;5049662;28;20029;-83
2022/10/15 11:14:50;;;;;;;1.90;1.05;;;;;;;15.79;94.59;98938.91;5030789;28;20120;-88
2022/10/15 11:17:40;;;;;;;1.00;0.35;;;;;;;15.73;95.88;98938.25;5050464;28;20117;-87
2022/10/15 11:20:15;;;;;;;1.73;0.73;;;;;;;15.71;96.57;98942.44;5057481;28;20033;-87
2022/10/15 11:23:05;;;;;;;3.53;0.95;;;;;;;15.58;97.44;98947.72;5050330;28;20040;-83
2022/10/15 11:25:43;;;;;;;0.73;0.50;;;;;;;15.72;97.26;98939.34;5049839;28;20059;-84
2022/10/15 11:28:46;;;;;;;0.68;0.30;;;;;;;15.86;97.98;98927.44;5050388;28;20488;-84
2022/10/15 11:31:48;;;;;;;0.77;0.55;;;;;;;15.95;96.45;98936.50;5050035;28;20495;-84